createdAt,value
2018-02-20T08:05:50.587Z,22.60
2018-02-20T08:11:29.545Z,23.00
2018-02-20T08:17:09.774Z,23.20
2018-02-20T08:25:41.903Z,23.20
2018-02-20T08:35:04.987Z,23.30
2018-02-20T08:37:34.559Z,23.40
2018-02-20T08:40:04.293Z,23.30
2018-02-20T08:42:32.700Z,23.40
2018-02-20T08:45:00.960Z,23.40
2018-02-20T08:47:28.999Z,23.60
2018-02-20T08:49:57.284Z,23.70
2018-02-20T08:52:25.830Z,23.70
2018-02-20T08:54:54.533Z,23.70
2018-02-20T08:57:22.471Z,23.70
2018-02-20T08:59:50.582Z,23.60
2018-02-20T09:02:18.900Z,23.60
2018-02-20T09:04:52.500Z,23.60
2018-02-20T09:07:20.699Z,23.60
2018-02-20T09:09:49.152Z,23.60
2018-02-20T09:12:17.615Z,23.60
2018-02-20T09:14:46.129Z,23.50
2018-02-20T09:17:14.856Z,23.50
2018-02-20T09:19:42.995Z,23.50
2018-02-20T09:22:11.414Z,23.40
2018-02-20T09:24:40.006Z,23.40
2018-02-20T09:27:09.095Z,23.40
2018-02-20T09:29:37.457Z,23.50
2018-02-20T09:32:05.983Z,23.60
2018-02-20T09:34:34.766Z,23.70
2018-02-20T09:37:02.914Z,23.70
2018-02-20T09:39:32.435Z,23.60
2018-02-20T09:42:01.671Z,23.70
2018-02-20T09:44:30.156Z,23.60
2018-02-20T09:46:58.624Z,23.80
2018-02-20T09:49:26.915Z,23.80
2018-02-20T09:51:54.794Z,23.70
2018-02-20T09:54:22.875Z,23.60
2018-02-20T09:56:51.674Z,23.50
2018-02-20T09:59:19.634Z,23.50
2018-02-20T10:01:48.474Z,23.80
2018-02-20T10:04:16.766Z,23.80
2018-02-20T10:06:53.234Z,23.90
2018-02-20T10:09:21.543Z,23.90
2018-02-20T10:11:52.303Z,23.90
2018-02-20T10:14:20.348Z,23.90
2018-02-20T10:16:48.975Z,24.10
2018-02-20T10:19:16.877Z,24.10
2018-02-20T10:21:44.958Z,24.20
2018-02-20T10:24:13.116Z,24.20
2018-02-20T10:26:41.313Z,24.20
2018-02-20T10:29:09.538Z,24.30
2018-02-20T10:31:37.624Z,24.30
2018-02-20T10:34:06.266Z,24.30
2018-02-20T10:36:35.004Z,24.30
2018-02-20T10:39:03.320Z,24.10
2018-02-20T10:41:31.559Z,24.10
2018-02-20T10:44:00.632Z,24.20
2018-02-20T10:46:29.293Z,24.20
2018-02-20T10:48:57.395Z,24.00
2018-02-20T10:51:25.432Z,24.10
2018-02-20T10:53:53.531Z,24.20
2018-02-20T10:56:21.612Z,24.30
2018-02-20T10:58:50.654Z,23.90
2018-02-20T11:01:19.630Z,23.90
2018-02-20T11:03:48.019Z,23.90
2018-02-20T11:58:23.243Z,23.00
2018-02-20T12:00:51.948Z,23.10
2018-02-20T12:03:20.494Z,23.20
2018-02-20T12:05:48.846Z,23.30
2018-02-20T12:08:17.026Z,23.50
2018-02-20T12:10:54.619Z,23.70
2018-02-20T12:13:23.114Z,23.70
2018-02-20T12:16:02.971Z,23.40
2018-02-20T12:18:31.459Z,23.40
2018-02-20T12:21:00.375Z,23.50
2018-02-20T12:23:28.676Z,23.40
2018-02-20T12:25:57.801Z,23.60
2018-02-20T12:28:27.149Z,23.90
2018-02-20T12:30:55.820Z,23.90
2018-02-20T12:33:24.262Z,23.90
2018-02-20T12:35:53.405Z,23.90
2018-02-20T12:38:22.250Z,24.00
2018-02-20T12:40:51.339Z,23.90
2018-02-20T12:43:20.655Z,23.90
2018-02-20T12:45:49.140Z,23.90
2018-02-20T12:48:18.092Z,23.90
2018-02-20T12:50:46.424Z,23.70
2018-02-20T12:53:14.723Z,23.60
2018-02-20T12:55:42.654Z,23.80
2018-02-20T12:58:11.010Z,23.80
2018-02-20T13:00:39.945Z,23.50
2018-02-20T13:03:08.694Z,23.70
2018-02-20T13:05:37.350Z,23.50
2018-02-20T13:08:07.067Z,23.60
2018-02-20T13:10:35.627Z,23.60
2018-02-20T13:13:05.468Z,23.70
2018-02-20T13:15:34.247Z,23.90
2018-02-20T13:18:14.192Z,24.00
2018-02-20T13:20:42.885Z,24.10
2018-02-20T13:23:20.158Z,24.10
2018-02-20T13:25:48.969Z,24.10
2018-02-20T13:28:32.200Z,24.10
2018-02-20T13:31:01.225Z,24.00
2018-02-20T13:33:34.219Z,24.00
2018-02-20T13:36:02.632Z,24.10
2018-02-20T13:41:11.318Z,24.30
2018-02-20T13:43:40.050Z,24.40
2018-02-20T13:46:08.425Z,24.40
2018-02-20T13:48:43.070Z,24.10
2018-02-20T13:51:11.417Z,23.90
2018-02-20T13:53:40.707Z,24.00
2018-02-20T13:56:26.968Z,23.90
2018-02-20T13:58:56.828Z,23.40
2018-02-20T14:01:24.971Z,23.40
2018-02-20T14:03:53.268Z,23.60
2018-02-20T14:06:22.761Z,23.70
2018-02-20T14:08:52.522Z,23.60
2018-02-20T14:11:21.081Z,23.70
2018-02-20T14:13:49.494Z,23.70
2018-02-20T14:16:17.729Z,23.70
2018-02-20T14:18:46.298Z,23.70
2018-02-20T14:21:14.886Z,23.70
2018-02-20T14:23:48.110Z,23.70
2018-02-20T14:26:16.568Z,23.60
2018-02-20T14:28:44.669Z,23.40
2018-02-20T14:31:13.022Z,23.60
2018-02-20T14:33:41.574Z,23.50
2018-02-20T14:36:10.781Z,23.40
2018-02-20T14:38:39.140Z,23.40
2018-02-20T14:41:08.490Z,23.60
2018-02-20T14:43:37.081Z,23.70
2018-02-20T14:46:11.970Z,23.80
2018-02-20T14:48:40.285Z,23.70
2018-02-20T14:51:24.964Z,23.60
2018-02-20T14:53:53.273Z,23.60
2018-02-20T14:56:22.516Z,23.70
2018-02-20T14:58:51.392Z,23.90
2018-02-20T15:01:27.380Z,23.90
2018-02-20T15:03:55.818Z,23.60
2018-02-20T15:06:33.719Z,23.50
2018-02-20T15:09:03.292Z,23.70
2018-02-20T15:11:40.367Z,23.80
2018-02-20T15:14:09.052Z,24.10
2018-02-20T15:16:37.678Z,24.00
2018-02-20T15:19:06.019Z,24.10
2018-02-20T15:21:34.287Z,24.20
2018-02-20T15:24:04.390Z,24.10
2018-02-20T15:26:32.442Z,24.10
2018-02-20T15:29:00.910Z,24.20
2018-02-20T15:31:29.233Z,24.30
2018-02-20T15:33:57.754Z,24.30
2018-02-20T15:36:26.215Z,24.30
2018-02-20T15:38:54.687Z,24.30
2018-02-20T15:41:23.005Z,24.10
2018-02-20T15:43:52.248Z,24.20
2018-02-20T15:46:21.045Z,24.20
2018-02-20T15:48:49.204Z,24.30
2018-02-20T15:51:17.685Z,24.20
2018-02-20T15:53:46.859Z,23.90
2018-02-20T15:56:15.181Z,23.90
2018-02-20T15:58:43.682Z,24.00
2018-02-20T16:01:12.244Z,24.10
2018-02-20T16:03:46.962Z,24.10
2018-02-20T16:06:15.772Z,24.00
2018-02-20T16:08:44.830Z,24.00
2018-02-20T16:11:13.689Z,23.90
2018-02-20T16:13:45.296Z,24.00
2018-02-20T16:16:14.136Z,23.90
